createdAt,value
2022-11-09T00:01:59.218Z,1.43
2022-11-09T00:04:27.670Z,1.53
2022-11-09T00:07:02.969Z,1.50
2022-11-09T00:09:38.538Z,1.30
2022-11-09T00:12:07.864Z,1.17
2022-11-09T00:14:39.177Z,1.27
2022-11-09T00:17:11.765Z,1.00
2022-11-09T00:19:40.847Z,1.27
2022-11-09T00:22:08.840Z,1.23
2022-11-09T00:24:37.021Z,1.23
2022-11-09T00:27:05.389Z,1.20
2022-11-09T00:29:40.935Z,1.13
2022-11-09T00:32:11.365Z,1.43
2022-11-09T00:34:39.568Z,1.20
2022-11-09T00:37:07.585Z,1.10
2022-11-09T00:39:39.331Z,1.43
2022-11-09T00:42:08.005Z,1.17
2022-11-09T00:44:35.966Z,1.33
2022-11-09T00:47:04.959Z,1.30
2022-11-09T00:49:37.201Z,1.30
2022-11-09T00:52:06.166Z,0.93
2022-11-09T00:54:34.193Z,1.00
2022-11-09T00:57:02.661Z,1.13
2022-11-09T00:59:57.953Z,1.10
2022-11-09T01:02:26.613Z,1.37
2022-11-09T01:04:55.986Z,1.07
2022-11-09T01:07:24.856Z,1.23
2022-11-09T01:09:54.719Z,1.23
2022-11-09T01:12:29.073Z,1.60
2022-11-09T01:14:57.105Z,1.40
2022-11-09T01:17:25.667Z,1.50
2022-11-09T01:19:58.236Z,1.37
2022-11-09T01:22:26.291Z,1.27
2022-11-09T01:24:56.199Z,1.17
2022-11-09T01:27:26.684Z,1.30
2022-11-09T01:32:37.639Z,1.03
2022-11-09T01:35:10.767Z,1.50
2022-11-09T01:37:40.137Z,1.20
2022-11-09T01:40:12.111Z,1.00
2022-11-09T01:42:41.411Z,1.17
2022-11-09T01:45:32.742Z,1.40
2022-11-09T01:48:06.444Z,1.20
2022-11-09T01:50:44.695Z,1.67
2022-11-09T01:53:19.380Z,1.60
2022-11-09T01:55:51.312Z,1.03
2022-11-09T01:58:26.492Z,1.20
2022-11-09T02:00:57.061Z,1.50
2022-11-09T02:03:30.753Z,1.30
2022-11-09T02:06:07.448Z,1.20
2022-11-09T02:08:37.561Z,1.20
2022-11-09T02:11:10.402Z,1.17
2022-11-09T02:13:42.846Z,1.40
2022-11-09T02:16:13.410Z,1.57
2022-11-09T02:18:54.509Z,1.20
2022-11-09T02:21:31.142Z,1.40
2022-11-09T02:24:03.385Z,1.53
2022-11-09T02:26:35.437Z,1.20
2022-11-09T02:29:08.826Z,1.30
2022-11-09T02:31:40.154Z,1.13
2022-11-09T02:34:12.317Z,0.90
2022-11-09T02:36:43.456Z,1.40
2022-11-09T02:39:19.305Z,1.77
2022-11-09T02:42:19.924Z,1.10
2022-11-09T02:44:57.682Z,1.43
2022-11-09T02:47:26.096Z,1.17
2022-11-09T02:49:54.177Z,1.20
2022-11-09T02:52:26.869Z,1.00
2022-11-09T02:54:55.913Z,1.10
2022-11-09T02:57:23.937Z,1.47
2022-11-09T02:59:56.613Z,1.20
2022-11-09T03:02:27.123Z,1.77
2022-11-09T03:04:56.226Z,1.27
2022-11-09T03:07:28.674Z,1.40
2022-11-09T03:09:58.099Z,1.40
2022-11-09T03:12:30.151Z,1.07
2022-11-09T03:15:08.410Z,1.23
2022-11-09T03:17:40.478Z,1.23
2022-11-09T03:20:10.618Z,1.20
2022-11-09T03:22:44.311Z,1.60
2022-11-09T03:25:14.199Z,1.63
2022-11-09T03:27:44.648Z,1.50
2022-11-09T03:30:14.881Z,1.47
2022-11-09T03:32:50.242Z,1.40
2022-11-09T03:35:21.547Z,1.47
2022-11-09T03:37:56.213Z,1.60
2022-11-09T03:40:26.283Z,1.20
2022-11-09T03:42:57.160Z,1.67
2022-11-09T03:45:28.172Z,1.07
2022-11-09T03:47:59.898Z,1.20
2022-11-09T03:50:29.464Z,1.23
2022-11-09T03:53:02.021Z,1.90
2022-11-09T03:55:38.642Z,2.23
2022-11-09T03:58:08.829Z,1.30
2022-11-09T04:00:40.329Z,1.90
2022-11-09T04:03:08.542Z,1.90
2022-11-09T04:05:39.052Z,1.37
2022-11-09T04:08:14.352Z,1.53
2022-11-09T04:10:43.025Z,1.37
2022-11-09T04:13:11.878Z,1.30
2022-11-09T04:15:40.298Z,1.30
2022-11-09T04:18:08.738Z,1.50
2022-11-09T04:20:36.922Z,1.17
2022-11-09T04:23:08.950Z,1.23
2022-11-09T04:25:39.108Z,1.40
2022-11-09T04:28:09.798Z,1.40
2022-11-09T04:30:38.374Z,1.57
2022-11-09T04:33:07.057Z,1.77
2022-11-09T04:35:36.287Z,1.30
2022-11-09T04:38:05.956Z,1.60
2022-11-09T04:40:41.362Z,1.40
2022-11-09T04:43:13.293Z,1.20
2022-11-09T04:45:42.209Z,1.10
2022-11-09T04:48:12.655Z,1.40
2022-11-09T04:50:41.538Z,1.40
2022-11-09T04:53:13.994Z,1.33
2022-11-09T04:55:43.680Z,1.37
2022-11-09T04:58:12.123Z,1.23
2022-11-09T05:00:41.281Z,1.53
2022-11-09T05:03:09.562Z,1.37
2022-11-09T05:05:44.033Z,1.30
2022-11-09T05:08:17.777Z,1.90
2022-11-09T05:13:29.720Z,1.33
2022-11-09T05:16:01.244Z,1.50
2022-11-09T05:18:30.286Z,1.23
2022-11-09T05:20:59.982Z,1.67
2022-11-09T05:26:32.103Z,1.30
2022-11-09T05:29:01.501Z,1.33
2022-11-09T05:31:30.154Z,1.47
2022-11-09T05:33:59.737Z,1.63
2022-11-09T05:36:29.068Z,1.50
2022-11-09T05:38:58.310Z,1.80
2022-11-09T05:41:27.139Z,1.60
2022-11-09T05:43:56.593Z,1.90
2022-11-09T05:46:27.511Z,1.10
2022-11-09T05:48:56.362Z,1.70
2022-11-09T05:51:26.490Z,1.77
2022-11-09T05:53:54.574Z,1.77
2022-11-09T05:56:23.039Z,1.67
2022-11-09T05:58:51.124Z,1.70
2022-11-09T06:01:20.957Z,1.37
2022-11-09T06:03:49.990Z,1.50
2022-11-09T06:06:18.423Z,1.97
2022-11-09T06:08:46.938Z,1.67
2022-11-09T06:11:21.807Z,1.40
2022-11-09T06:13:52.031Z,1.60
2022-11-09T06:16:25.930Z,2.17
2022-11-09T06:18:53.980Z,1.17
2022-11-09T06:21:22.023Z,1.90
2022-11-09T06:23:50.866Z,1.10
2022-11-09T06:26:18.880Z,1.53
2022-11-09T06:28:47.472Z,2.67
2022-11-09T06:31:17.724Z,1.40
2022-11-09T06:33:48.196Z,2.10
2022-11-09T06:36:16.247Z,1.77
2022-11-09T06:38:44.253Z,2.03
2022-11-09T06:41:13.236Z,1.50
2022-11-09T06:43:41.367Z,1.87
2022-11-09T06:46:11.852Z,1.73
2022-11-09T06:48:40.318Z,1.40
2022-11-09T06:51:11.370Z,1.63
2022-11-09T06:53:43.377Z,1.63
2022-11-09T06:56:12.163Z,2.90
2022-11-09T06:58:41.387Z,1.80
2022-11-09T07:01:10.666Z,1.50
2022-11-09T07:03:39.519Z,2.33
2022-11-09T07:06:10.836Z,1.67
2022-11-09T07:08:41.661Z,2.03
2022-11-09T07:11:14.373Z,1.70
2022-11-09T07:13:43.191Z,2.20
2022-11-09T07:16:12.848Z,1.70
2022-11-09T07:18:43.985Z,1.50
2022-11-09T07:21:14.604Z,1.70
2022-11-09T07:23:43.865Z,1.33
2022-11-09T07:26:14.707Z,2.00
2022-11-09T07:28:43.820Z,1.50
2022-11-09T07:31:13.822Z,1.73
2022-11-09T07:33:44.218Z,1.80
2022-11-09T07:36:20.910Z,1.50
2022-11-09T07:38:49.962Z,1.70
2022-11-09T07:41:18.340Z,1.80
2022-11-09T07:43:49.713Z,1.43
2022-11-09T07:46:21.028Z,1.80
2022-11-09T07:48:51.505Z,1.47
2022-11-09T07:51:22.321Z,1.20
2022-11-09T07:53:50.526Z,1.30
2022-11-09T07:56:21.737Z,1.40
2022-11-09T07:58:51.474Z,1.47
2022-11-09T08:01:19.594Z,1.47
2022-11-09T08:03:50.204Z,1.30
2022-11-09T08:06:19.119Z,1.93
2022-11-09T08:08:49.461Z,1.60
2022-11-09T08:11:19.197Z,1.60
2022-11-09T08:13:47.400Z,1.67
2022-11-09T08:16:15.468Z,1.90
2022-11-09T08:18:44.116Z,1.20
2022-11-09T08:21:12.701Z,1.70
2022-11-09T08:23:43.863Z,1.60
2022-11-09T08:26:14.140Z,1.60
2022-11-09T08:28:42.276Z,1.43
2022-11-09T08:31:10.726Z,1.60
2022-11-09T08:33:41.426Z,1.30
2022-11-09T08:36:11.161Z,1.40
2022-11-09T08:38:39.909Z,1.43
2022-11-09T08:41:13.266Z,1.80
2022-11-09T08:43:45.872Z,2.00
2022-11-09T08:46:14.519Z,1.50
2022-11-09T08:48:42.514Z,1.97
2022-11-09T08:51:11.124Z,1.23
2022-11-09T08:53:39.180Z,1.60
2022-11-09T08:56:08.210Z,2.10
2022-11-09T08:58:36.867Z,1.30
2022-11-09T09:01:13.891Z,1.37
2022-11-09T09:03:44.647Z,1.50
2022-11-09T09:06:15.275Z,1.40
2022-11-09T09:08:45.044Z,1.67
2022-11-09T09:11:13.520Z,1.57
2022-11-09T09:13:43.583Z,1.30
2022-11-09T09:16:16.684Z,1.73
2022-11-09T09:18:45.124Z,1.43
2022-11-09T09:21:13.422Z,1.50
2022-11-09T09:23:41.943Z,1.33
2022-11-09T09:26:10.102Z,1.53
2022-11-09T09:28:41.402Z,1.27
2022-11-09T09:31:17.246Z,1.43
2022-11-09T09:33:53.539Z,1.67
2022-11-09T09:36:27.201Z,1.90
2022-11-09T09:38:56.053Z,2.03
2022-11-09T09:41:29.891Z,1.47
2022-11-09T09:44:04.734Z,1.83
2022-11-09T09:46:40.036Z,1.80
2022-11-09T09:49:15.503Z,1.63
2022-11-09T09:51:57.349Z,1.60
2022-11-09T09:54:31.159Z,1.67
2022-11-09T09:57:04.259Z,1.60
2022-11-09T09:59:39.783Z,1.20
2022-11-09T10:02:19.800Z,1.33
2022-11-09T10:04:49.695Z,1.87
2022-11-09T10:07:23.975Z,1.77
2022-11-09T10:10:23.716Z,1.43
2022-11-09T10:13:17.958Z,1.50
2022-11-09T10:15:50.438Z,1.43
2022-11-09T10:18:34.225Z,2.07
2022-11-09T10:21:16.465Z,1.70
2022-11-09T10:23:54.429Z,2.77
2022-11-09T10:26:28.432Z,1.10
2022-11-09T10:29:15.779Z,1.00
2022-11-09T10:31:46.774Z,1.40
2022-11-09T10:34:20.269Z,1.50
2022-11-09T10:36:59.705Z,1.27
2022-11-09T10:39:38.957Z,1.73
2022-11-09T10:42:25.549Z,1.20
2022-11-09T10:45:25.069Z,1.17
2022-11-09T10:48:14.006Z,1.40
2022-11-09T10:51:03.635Z,1.30
2022-11-09T10:54:15.356Z,1.47
2022-11-09T10:57:10.867Z,1.73
2022-11-09T10:59:59.066Z,1.40
2022-11-09T11:02:48.172Z,2.17
2022-11-09T11:05:37.374Z,1.40
2022-11-09T11:08:32.356Z,1.80
2022-11-09T11:11:33.817Z,1.10
2022-11-09T11:14:31.935Z,1.97
2022-11-09T11:17:28.910Z,1.47
2022-11-09T11:20:35.163Z,1.77
2022-11-09T11:23:24.440Z,1.50
2022-11-09T11:26:36.947Z,1.70
2022-11-09T11:29:31.887Z,1.63
2022-11-09T11:32:21.525Z,1.97
2022-11-09T11:35:17.527Z,1.40
2022-11-09T11:38:18.335Z,1.63
2022-11-09T11:41:37.608Z,1.87
2022-11-09T11:44:39.630Z,1.90
2022-11-09T11:47:29.514Z,1.20
2022-11-09T11:50:37.796Z,1.77
2022-11-09T11:53:43.362Z,1.40
2022-11-09T11:59:58.458Z,1.63
2022-11-09T12:03:15.809Z,1.27
2022-11-09T12:06:35.465Z,1.40
2022-11-09T12:09:33.651Z,1.27
2022-11-09T12:12:38.374Z,1.63
2022-11-09T12:15:43.731Z,1.20
2022-11-09T12:18:41.471Z,1.60
2022-11-09T12:21:35.811Z,1.20
2022-11-09T12:24:29.770Z,1.87
2022-11-09T12:27:35.019Z,2.47
2022-11-09T12:30:24.323Z,1.60
2022-11-09T12:33:20.837Z,1.47
2022-11-09T12:36:13.128Z,1.30
2022-11-09T12:39:05.501Z,1.70
2022-11-09T12:41:56.274Z,1.40
2022-11-09T12:44:47.978Z,1.13
2022-11-09T12:47:42.411Z,1.33
2022-11-09T12:50:45.963Z,1.13
2022-11-09T12:53:37.958Z,1.17
2022-11-09T12:56:32.783Z,1.73
2022-11-09T12:59:36.341Z,1.20
2022-11-09T13:02:33.329Z,1.10
2022-11-09T13:05:34.575Z,1.73
2022-11-09T13:08:31.423Z,2.00
2022-11-09T13:11:23.982Z,1.47
2022-11-09T13:14:44.676Z,1.70
2022-11-09T13:18:00.775Z,1.67
2022-11-09T13:20:55.266Z,1.97
2022-11-09T13:24:03.900Z,2.20
2022-11-09T13:27:02.316Z,1.80
2022-11-09T13:29:56.138Z,1.50
2022-11-09T13:33:25.154Z,2.00
2022-11-09T13:36:20.932Z,2.03
2022-11-09T13:39:32.522Z,2.20
2022-11-09T13:42:28.110Z,1.70
2022-11-09T13:45:31.065Z,1.90
2022-11-09T13:48:46.163Z,1.63
2022-11-09T13:51:45.476Z,2.03
2022-11-09T13:54:35.205Z,1.93
2022-11-09T13:57:24.715Z,1.70
2022-11-09T14:00:23.115Z,1.70
2022-11-09T14:03:23.549Z,1.77
2022-11-09T14:06:13.546Z,1.63
2022-11-09T14:09:02.937Z,2.03
2022-11-09T14:12:08.764Z,1.60
2022-11-09T14:15:23.314Z,2.23
2022-11-09T14:18:19.650Z,1.60
2022-11-09T14:21:15.789Z,1.93
2022-11-09T14:24:04.805Z,2.50
2022-11-09T14:27:03.848Z,1.50
2022-11-09T14:29:54.235Z,1.50
2022-11-09T14:32:41.749Z,1.87
2022-11-09T14:35:31.610Z,1.80
2022-11-09T14:38:22.327Z,2.50
2022-11-09T14:41:22.363Z,2.10
2022-11-09T14:44:22.317Z,2.40
2022-11-09T14:47:18.222Z,2.40
2022-11-09T14:50:06.307Z,2.17
2022-11-09T14:52:57.415Z,1.50
2022-11-09T14:55:47.644Z,1.67
2022-11-09T14:58:37.767Z,1.70
2022-11-09T15:01:36.554Z,2.00
2022-11-09T15:04:26.909Z,2.03
2022-11-09T15:07:19.602Z,1.60
2022-11-09T15:10:10.242Z,1.77
2022-11-09T15:13:03.994Z,1.60
2022-11-09T15:15:55.544Z,2.57
2022-11-09T15:18:47.867Z,1.80
2022-11-09T15:21:37.792Z,1.80
2022-11-09T15:24:26.395Z,2.03
2022-11-09T15:27:34.668Z,2.17
2022-11-09T15:30:34.086Z,1.87
2022-11-09T15:33:25.290Z,2.17
2022-11-09T15:36:33.895Z,1.67
2022-11-09T15:39:22.048Z,2.17
2022-11-09T15:42:13.661Z,2.10
2022-11-09T15:45:01.660Z,1.80
2022-11-09T15:47:54.527Z,2.40
2022-11-09T15:50:48.663Z,1.80
2022-11-09T15:53:37.590Z,1.10
2022-11-09T15:56:25.494Z,1.63
2022-11-09T15:59:22.321Z,2.00
2022-11-09T16:05:13.009Z,1.60
2022-11-09T16:08:01.429Z,1.30
2022-11-09T16:10:50.613Z,1.77
2022-11-09T16:13:37.809Z,1.50
2022-11-09T16:16:25.574Z,1.53
2022-11-09T16:19:22.342Z,1.83
2022-11-09T16:22:09.190Z,2.23
2022-11-09T16:24:58.903Z,1.63
2022-11-09T16:27:51.276Z,1.50
2022-11-09T16:30:58.016Z,1.53
2022-11-09T16:33:45.282Z,1.80
2022-11-09T16:36:34.783Z,1.90
2022-11-09T16:39:22.474Z,2.43
2022-11-09T16:42:12.537Z,2.33
2022-11-09T16:45:09.351Z,1.83
2022-11-09T16:47:57.286Z,2.60
2022-11-09T16:50:45.154Z,2.10
2022-11-09T16:53:33.930Z,2.20
2022-11-09T16:56:21.360Z,2.83
2022-11-09T16:59:11.595Z,2.00
2022-11-09T17:02:01.008Z,2.63
2022-11-09T17:04:47.865Z,2.13
2022-11-09T17:07:42.603Z,2.27
2022-11-09T17:10:29.455Z,2.40
2022-11-09T17:13:16.718Z,1.80
2022-11-09T17:16:06.204Z,2.43
2022-11-09T17:18:56.085Z,3.00
2022-11-09T17:21:43.083Z,2.20
2022-11-09T17:24:33.188Z,2.47
2022-11-09T17:27:21.102Z,2.80
2022-11-09T17:30:10.183Z,2.20
2022-11-09T17:32:56.975Z,2.17
2022-11-09T17:35:48.067Z,2.30
2022-11-09T17:38:35.860Z,2.57
2022-11-09T17:41:23.603Z,2.40
2022-11-09T17:44:12.808Z,2.10
2022-11-09T17:47:00.046Z,1.93
2022-11-09T17:49:47.519Z,2.17
2022-11-09T17:52:35.617Z,2.80
2022-11-09T17:55:23.413Z,2.40
2022-11-09T17:58:09.996Z,2.50
2022-11-09T18:00:59.628Z,2.80
2022-11-09T18:03:48.873Z,2.97
2022-11-09T18:06:36.681Z,1.87
2022-11-09T18:09:40.802Z,2.97
2022-11-09T18:12:28.462Z,2.73
2022-11-09T18:15:15.954Z,2.13
2022-11-09T18:18:02.916Z,2.47
2022-11-09T18:20:50.068Z,2.20
2022-11-09T18:23:38.028Z,2.40
2022-11-09T18:26:27.058Z,1.70
2022-11-09T18:29:13.742Z,2.77
2022-11-09T18:32:00.960Z,2.07
2022-11-09T18:34:47.695Z,2.40
2022-11-09T18:37:35.661Z,1.97
2022-11-09T18:40:23.129Z,2.57
2022-11-09T18:43:14.276Z,2.20
2022-11-09T18:46:03.727Z,2.83
2022-11-09T18:48:52.627Z,2.53
2022-11-09T18:51:39.822Z,3.07
2022-11-09T18:54:27.239Z,1.97
2022-11-09T18:57:19.628Z,2.33
2022-11-09T19:00:11.185Z,2.70
2022-11-09T19:02:58.489Z,2.50
2022-11-09T19:05:48.766Z,3.10
2022-11-09T19:08:55.147Z,3.80
2022-11-09T19:11:42.372Z,3.63
2022-11-09T19:14:30.182Z,2.77
2022-11-09T19:17:19.137Z,2.73
2022-11-09T19:20:07.221Z,2.67
2022-11-09T19:22:56.415Z,2.50
2022-11-09T19:25:45.186Z,1.93
2022-11-09T19:28:32.676Z,1.90
2022-11-09T19:31:21.323Z,2.43
2022-11-09T19:34:09.624Z,2.60
2022-11-09T19:36:56.581Z,3.30
2022-11-09T19:39:57.177Z,2.30
2022-11-09T19:42:45.089Z,1.57
2022-11-09T19:45:34.752Z,1.53
2022-11-09T19:48:21.654Z,1.80
2022-11-09T19:51:09.969Z,1.90
2022-11-09T19:53:58.909Z,1.90
2022-11-09T19:56:47.776Z,1.30
2022-11-09T19:59:36.973Z,1.27
2022-11-09T20:02:25.269Z,1.90
2022-11-09T20:05:11.641Z,2.23
2022-11-09T20:08:00.878Z,2.30
2022-11-09T20:10:47.395Z,2.17
2022-11-09T20:13:36.574Z,1.60
2022-11-09T20:16:25.901Z,2.27
2022-11-09T20:19:17.338Z,2.20
2022-11-09T20:22:04.909Z,1.77
2022-11-09T20:24:53.037Z,2.77
2022-11-09T20:27:41.498Z,2.90
2022-11-09T20:30:28.379Z,3.70
2022-11-09T20:33:15.340Z,2.97
2022-11-09T20:36:04.075Z,2.00
2022-11-09T20:38:54.595Z,2.83
2022-11-09T20:41:49.606Z,2.70
2022-11-09T20:44:44.557Z,1.90
2022-11-09T20:48:02.100Z,2.10
2022-11-09T20:50:40.473Z,1.93
2022-11-09T20:53:27.870Z,1.60
2022-11-09T20:56:15.132Z,2.27
2022-11-09T20:59:03.224Z,1.67
2022-11-09T21:01:52.210Z,2.00
2022-11-09T21:04:39.846Z,2.07
2022-11-09T21:07:26.934Z,1.93
2022-11-09T21:10:14.567Z,1.70
2022-11-09T21:13:01.538Z,1.97
2022-11-09T21:15:50.830Z,2.03
2022-11-09T21:18:39.433Z,2.87
2022-11-09T21:21:36.689Z,2.33
2022-11-09T21:24:44.407Z,3.10
2022-11-09T21:27:52.240Z,2.20
2022-11-09T21:30:42.636Z,2.70
2022-11-09T21:33:33.580Z,2.30
2022-11-09T21:36:20.802Z,2.30
2022-11-09T21:39:07.654Z,3.00
2022-11-09T21:41:56.930Z,2.70
2022-11-09T21:44:44.523Z,2.87
2022-11-09T21:47:32.831Z,2.20
2022-11-09T21:50:28.657Z,1.73
2022-11-09T21:53:17.049Z,2.20
2022-11-09T21:56:03.843Z,2.40
2022-11-09T21:58:51.274Z,2.03
2022-11-09T22:01:38.506Z,1.90
2022-11-09T22:04:26.090Z,2.70
2022-11-09T22:07:14.135Z,2.97
2022-11-09T22:10:16.703Z,2.10
2022-11-09T22:13:21.514Z,2.10
2022-11-09T22:16:11.402Z,2.23
2022-11-09T22:19:16.186Z,2.97
2022-11-09T22:22:06.097Z,2.50
2022-11-09T22:24:54.926Z,2.17
2022-11-09T22:27:42.659Z,2.10
2022-11-09T22:30:29.600Z,2.70
2022-11-09T22:33:26.935Z,2.57
2022-11-09T22:36:15.289Z,2.00
2022-11-09T22:39:01.989Z,2.23
2022-11-09T22:41:51.224Z,3.70
2022-11-09T22:44:37.652Z,3.30
2022-11-09T22:47:26.306Z,2.77
2022-11-09T22:50:13.201Z,2.70
2022-11-09T22:53:03.947Z,2.50
2022-11-09T22:55:56.569Z,2.27
2022-11-09T22:58:45.058Z,2.27
2022-11-09T23:01:33.045Z,3.00
2022-11-09T23:04:20.534Z,2.27
2022-11-09T23:07:07.855Z,2.83
2022-11-09T23:09:54.660Z,2.37
2022-11-09T23:12:42.536Z,2.90
2022-11-09T23:15:38.274Z,2.47
2022-11-09T23:18:47.006Z,2.73
2022-11-09T23:21:41.349Z,2.40
2022-11-09T23:24:46.576Z,2.50
2022-11-09T23:27:38.663Z,1.73
2022-11-09T23:30:25.490Z,2.87
2022-11-09T23:33:14.415Z,2.60
2022-11-09T23:36:02.975Z,2.20
2022-11-09T23:38:52.981Z,2.87
2022-11-09T23:41:40.194Z,2.20
2022-11-09T23:44:26.857Z,3.07
2022-11-09T23:47:18.298Z,2.80
2022-11-09T23:50:10.797Z,3.57
2022-11-09T23:53:02.412Z,3.43
2022-11-09T23:55:50.045Z,3.93
2022-11-09T23:58:38.562Z,3.80
